sensor_id;sensor_type;location;lat;lon;timestamp;pressure;altitude;pressure_sealevel;temperature;humidity
46718;BME280;32448;44.960;-0.698;2023-03-13T00:01:20;101243.75;;;12.33;100.00
46718;BME280;32448;44.960;-0.698;2023-03-13T00:03:47;101226.16;;;12.26;100.00
46718;BME280;32448;44.960;-0.698;2023-03-13T00:06:15;101221.75;;;12.23;100.00
46718;BME280;32448;44.960;-0.698;2023-03-13T00:08:42;101212.97;;;12.21;100.00
46718;BME280;32448;44.960;-0.698;2023-03-13T00:11:12;101196.19;;;12.10;100.00
46718;BME280;32448;44.960;-0.698;2023-03-13T00:13:41;101204.09;;;12.13;100.00
46718;BME280;32448;44.960;-0.698;2023-03-13T00:16:11;101198.00;;;12.16;100.00
46718;BME280;32448;44.960;-0.698;2023-03-13T00:18:46;101195.38;;;12.13;100.00
46718;BME280;32448;44.960;-0.698;2023-03-13T00:21:15;101183.97;;;12.11;100.00
46718;BME280;32448;44.960;-0.698;2023-03-13T00:23:43;101179.50;;;12.07;100.00
46718;BME280;32448;44.960;-0.698;2023-03-13T00:26:18;101169.00;;;12.03;100.00
46718;BME280;32448;44.960;-0.698;2023-03-13T00:28:46;101166.34;;;12.02;100.00
46718;BME280;32448;44.960;-0.698;2023-03-13T00:31:16;101164.53;;;11.98;100.00
46718;BME280;32448;44.960;-0.698;2023-03-13T00:33:46;101142.50;;;11.87;100.00
46718;BME280;32448;44.960;-0.698;2023-03-13T00:36:16;101154.81;;;11.91;100.00
46718;BME280;32448;44.960;-0.698;2023-03-13T00:38:44;101157.47;;;11.92;100.00
46718;BME280;32448;44.960;-0.698;2023-03-13T00:41:17;101154.00;;;11.96;100.00
46718;BME280;32448;44.960;-0.698;2023-03-13T00:43:46;101143.47;;;11.93;100.00
46718;BME280;32448;44.960;-0.698;2023-03-13T00:46:16;101142.59;;;11.91;100.00
46718;BME280;32448;44.960;-0.698;2023-03-13T00:48:43;101152.28;;;11.97;100.00
46718;BME280;32448;44.960;-0.698;2023-03-13T00:51:11;101160.09;;;11.95;100.00
46718;BME280;32448;44.960;-0.698;2023-03-13T00:53:40;101163.59;;;11.93;100.00
46718;BME280;32448;44.960;-0.698;2023-03-13T00:56:12;101146.88;;;11.88;100.00
46718;BME280;32448;44.960;-0.698;2023-03-13T00:58:41;101141.34;;;11.74;100.00
46718;BME280;32448;44.960;-0.698;2023-03-13T01:01:30;101157.25;;;11.83;100.00
46718;BME280;32448;44.960;-0.698;2023-03-13T01:04:01;101152.78;;;11.76;100.00
46718;BME280;32448;44.960;-0.698;2023-03-13T01:06:31;101141.47;;;11.77;100.00
46718;BME280;32448;44.960;-0.698;2023-03-13T01:08:59;101135.22;;;11.72;100.00
46718;BME280;32448;44.960;-0.698;2023-03-13T01:11:29;101141.25;;;11.68;100.00
46718;BME280;32448;44.960;-0.698;2023-03-13T01:13:59;101110.41;;;11.52;100.00
46718;BME280;32448;44.960;-0.698;2023-03-13T01:16:29;101120.09;;;11.56;100.00
46718;BME280;32448;44.960;-0.698;2023-03-13T01:19:02;101111.16;;;11.45;100.00
46718;BME280;32448;44.960;-0.698;2023-03-13T01:21:30;101126.97;;;11.51;100.00
46718;BME280;32448;44.960;-0.698;2023-03-13T01:23:58;101112.03;;;11.45;100.00
46718;BME280;32448;44.960;-0.698;2023-03-13T01:26:26;101109.28;;;11.38;100.00
46718;BME280;32448;44.960;-0.698;2023-03-13T01:28:54;101100.44;;;11.32;100.00
46718;BME280;32448;44.960;-0.698;2023-03-13T01:31:27;101104.84;;;11.34;100.00
46718;BME280;32448;44.960;-0.698;2023-03-13T01:33:58;101103.81;;;11.25;100.00
46718;BME280;32448;44.960;-0.698;2023-03-13T01:36:26;101104.78;;;11.30;100.00
46718;BME280;32448;44.960;-0.698;2023-03-13T01:38:55;101113.50;;;11.31;100.00
46718;BME280;32448;44.960;-0.698;2023-03-13T01:41:25;101100.47;;;11.34;100.00
46718;BME280;32448;44.960;-0.698;2023-03-13T01:43:52;101096.06;;;11.31;100.00
46718;BME280;32448;44.960;-0.698;2023-03-13T01:46:26;101097.91;;;11.36;100.00
46718;BME280;32448;44.960;-0.698;2023-03-13T01:49:07;101083.91;;;11.34;100.00
46718;BME280;32448;44.960;-0.698;2023-03-13T01:52:37;101084.84;;;11.39;100.00
46718;BME280;32448;44.960;-0.698;2023-03-13T01:55:14;101070.75;;;11.30;100.00
46718;BME280;32448;44.960;-0.698;2023-03-13T01:57:51;101063.03;;;11.38;100.00
46718;BME280;32448;44.960;-0.698;2023-03-13T02:00:25;101069.44;;;11.54;100.00
46718;BME280;32448;44.960;-0.698;2023-03-13T02:02:55;101087.03;;;11.62;100.00
46718;BME280;32448;44.960;-0.698;2023-03-13T02:05:25;101083.50;;;11.60;100.00
46718;BME280;32448;44.960;-0.698;2023-03-13T02:08:02;101073.91;;;11.61;100.00
46718;BME280;32448;44.960;-0.698;2023-03-13T02:10:39;101059.06;;;11.60;100.00
46718;BME280;32448;44.960;-0.698;2023-03-13T02:13:11;101059.03;;;11.57;100.00
46718;BME280;32448;44.960;-0.698;2023-03-13T02:15:41;101060.25;;;11.76;100.00
46718;BME280;32448;44.960;-0.698;2023-03-13T02:18:08;101044.47;;;11.74;100.00
46718;BME280;32448;44.960;-0.698;2023-03-13T02:20:38;101041.75;;;11.68;100.00
46718;BME280;32448;44.960;-0.698;2023-03-13T02:23:18;101036.59;;;11.73;100.00
46718;BME280;32448;44.960;-0.698;2023-03-13T02:25:50;101054.31;;;11.87;100.00
46718;BME280;32448;44.960;-0.698;2023-03-13T02:28:31;101057.03;;;11.92;100.00
46718;BME280;32448;44.960;-0.698;2023-03-13T02:31:02;101052.69;;;11.94;100.00
46718;BME280;32448;44.960;-0.698;2023-03-13T02:33:34;101043.94;;;11.93;100.00
46718;BME280;32448;44.960;-0.698;2023-03-13T02:36:04;101051.94;;;12.01;100.00
46718;BME280;32448;44.960;-0.698;2023-03-13T02:38:36;101060.72;;;12.06;100.00
46718;BME280;32448;44.960;-0.698;2023-03-13T02:41:04;101038.91;;;12.07;100.00
46718;BME280;32448;44.960;-0.698;2023-03-13T02:43:37;101033.75;;;12.12;100.00
46718;BME280;32448;44.960;-0.698;2023-03-13T02:46:16;101047.94;;;12.24;100.00
46718;BME280;32448;44.960;-0.698;2023-03-13T02:48:52;101050.56;;;12.27;100.00
46718;BME280;32448;44.960;-0.698;2023-03-13T02:51:32;101041.81;;;12.27;100.00
46718;BME280;32448;44.960;-0.698;2023-03-13T02:54:07;101034.88;;;12.29;100.00
46718;BME280;32448;44.960;-0.698;2023-03-13T02:56:37;101023.47;;;12.25;100.00
46718;BME280;32448;44.960;-0.698;2023-03-13T02:59:08;101028.84;;;12.34;100.00
46718;BME280;32448;44.960;-0.698;2023-03-13T03:01:39;101030.63;;;12.37;100.00
46718;BME280;32448;44.960;-0.698;2023-03-13T03:04:06;101022.78;;;12.37;100.00
46718;BME280;32448;44.960;-0.698;2023-03-13T03:06:34;101004.28;;;12.28;100.00
46718;BME280;32448;44.960;-0.698;2023-03-13T03:09:03;101014.00;;;12.35;100.00
46718;BME280;32448;44.960;-0.698;2023-03-13T03:11:34;100999.19;;;12.37;100.00
46718;BME280;32448;44.960;-0.698;2023-03-13T03:14:07;100979.81;;;12.26;100.00
46718;BME280;32448;44.960;-0.698;2023-03-13T03:16:39;100994.78;;;12.36;100.00
46718;BME280;32448;44.960;-0.698;2023-03-13T03:19:07;100990.41;;;12.38;100.00
46718;BME280;32448;44.960;-0.698;2023-03-13T03:21:35;100975.69;;;12.45;100.00
46718;BME280;32448;44.960;-0.698;2023-03-13T03:24:02;100959.91;;;12.42;100.00
46718;BME280;32448;44.960;-0.698;2023-03-13T03:26:29;100971.47;;;12.57;100.00
46718;BME280;32448;44.960;-0.698;2023-03-13T03:28:57;100955.59;;;12.45;100.00
46718;BME280;32448;44.960;-0.698;2023-03-13T03:31:24;100960.88;;;12.51;100.00
46718;BME280;32448;44.960;-0.698;2023-03-13T03:33:53;100966.97;;;12.47;100.00
46718;BME280;32448;44.960;-0.698;2023-03-13T03:36:21;100967.88;;;12.51;100.00
46718;BME280;32448;44.960;-0.698;2023-03-13T03:38:49;100961.75;;;12.50;100.00
46718;BME280;32448;44.960;-0.698;2023-03-13T03:41:22;100957.44;;;12.54;100.00
46718;BME280;32448;44.960;-0.698;2023-03-13T03:43:49;100948.63;;;12.47;100.00
46718;BME280;32448;44.960;-0.698;2023-03-13T03:46:20;100960.06;;;12.54;100.00
46718;BME280;32448;44.960;-0.698;2023-03-13T03:48:48;100964.41;;;12.53;100.00
46718;BME280;32448;44.960;-0.698;2023-03-13T03:51:15;100953.84;;;12.49;100.00
46718;BME280;32448;44.960;-0.698;2023-03-13T03:53:46;100955.59;;;12.48;100.00
46718;BME280;32448;44.960;-0.698;2023-03-13T03:56:13;100946.13;;;12.58;100.00
46718;BME280;32448;44.960;-0.698;2023-03-13T03:58:46;100946.97;;;12.57;100.00
46718;BME280;32448;44.960;-0.698;2023-03-13T04:01:36;100947.06;;;12.64;100.00
46718;BME280;32448;44.960;-0.698;2023-03-13T04:04:04;100945.34;;;12.66;100.00
46718;BME280;32448;44.960;-0.698;2023-03-13T04:06:32;100935.66;;;12.62;100.00
46718;BME280;32448;44.960;-0.698;2023-03-13T04:09:00;100940.88;;;12.58;100.00
46718;BME280;32448;44.960;-0.698;2023-03-13T04:11:29;100937.38;;;12.60;100.00
46718;BME280;32448;44.960;-0.698;2023-03-13T04:13:57;100947.91;;;12.63;100.00
46718;BME280;32448;44.960;-0.698;2023-03-13T04:16:24;100933.06;;;12.64;100.00
46718;BME280;32448;44.960;-0.698;2023-03-13T04:18:53;100926.84;;;12.54;100.00
46718;BME280;32448;44.960;-0.698;2023-03-13T04:21:23;100926.00;;;12.55;100.00
46718;BME280;32448;44.960;-0.698;2023-03-13T04:23:59;100916.41;;;12.59;100.00
46718;BME280;32448;44.960;-0.698;2023-03-13T04:26:26;100892.63;;;12.42;100.00
46718;BME280;32448;44.960;-0.698;2023-03-13T04:28:56;100899.72;;;12.52;100.00
46718;BME280;32448;44.960;-0.698;2023-03-13T04:31:43;100895.31;;;12.47;100.00
46718;BME280;32448;44.960;-0.698;2023-03-13T04:34:36;100888.28;;;12.44;100.00
46718;BME280;32448;44.960;-0.698;2023-03-13T04:37:03;100883.88;;;12.42;100.00
46718;BME280;32448;44.960;-0.698;2023-03-13T04:39:37;100896.94;;;12.37;100.00
46718;BME280;32448;44.960;-0.698;2023-03-13T04:42:09;100896.84;;;12.31;100.00
46718;BME280;32448;44.960;-0.698;2023-03-13T04:44:50;100870.47;;;12.17;100.00
46718;BME280;32448;44.960;-0.698;2023-03-13T04:47:36;100874.81;;;12.15;100.00
46718;BME280;32448;44.960;-0.698;2023-03-13T04:50:17;100867.84;;;12.16;100.00
46718;BME280;32448;44.960;-0.698;2023-03-13T04:53:01;100863.50;;;12.15;100.00
46718;BME280;32448;44.960;-0.698;2023-03-13T04:56:01;100845.91;;;12.08;100.00
46718;BME280;32448;44.960;-0.698;2023-03-13T04:58:47;100835.38;;;12.01;100.00
46718;BME280;32448;44.960;-0.698;2023-03-13T05:01:49;100816.09;;;11.96;100.00
46718;BME280;32448;44.960;-0.698;2023-03-13T05:04:56;100814.28;;;11.91;100.00
46718;BME280;32448;44.960;-0.698;2023-03-13T05:07:24;100802.94;;;11.90;100.00
46718;BME280;32448;44.960;-0.698;2023-03-13T05:10:11;100799.47;;;11.91;100.00
46718;BME280;32448;44.960;-0.698;2023-03-13T05:13:04;100805.50;;;11.87;100.00
46718;BME280;32448;44.960;-0.698;2023-03-13T05:15:57;100805.47;;;11.86;100.00
46718;BME280;32448;44.960;-0.698;2023-03-13T05:18:43;100799.31;;;11.79;100.00
46718;BME280;32448;44.960;-0.698;2023-03-13T05:21:19;100804.53;;;11.79;100.00
46718;BME280;32448;44.960;-0.698;2023-03-13T05:23:59;100786.06;;;11.68;100.00
46718;BME280;32448;44.960;-0.698;2023-03-13T05:26:42;100810.63;;;11.77;100.00
46718;BME280;32448;44.960;-0.698;2023-03-13T05:29:38;100804.38;;;11.68;100.00
46718;BME280;32448;44.960;-0.698;2023-03-13T05:32:15;100806.13;;;11.68;100.00
46718;BME280;32448;44.960;-0.698;2023-03-13T05:34:57;100785.94;;;11.62;100.00
46718;BME280;32448;44.960;-0.698;2023-03-13T05:37:31;100788.47;;;11.55;100.00
46718;BME280;32448;44.960;-0.698;2023-03-13T05:40:24;100782.25;;;11.45;100.00
46718;BME280;32448;44.960;-0.698;2023-03-13T05:43:12;100774.31;;;11.38;100.00
46718;BME280;32448;44.960;-0.698;2023-03-13T05:46:05;100775.09;;;11.34;100.00
46718;BME280;32448;44.960;-0.698;2023-03-13T05:48:57;100771.56;;;11.30;100.00
46718;BME280;32448;44.960;-0.698;2023-03-13T05:51:50;100746.00;;;11.11;100.00
46718;BME280;32448;44.960;-0.698;2023-03-13T05:54:38;100759.00;;;11.06;100.00
46718;BME280;32448;44.960;-0.698;2023-03-13T05:57:38;100761.56;;;11.02;100.00
46718;BME280;32448;44.960;-0.698;2023-03-13T06:00:18;100754.50;;;10.96;100.00
46718;BME280;32448;44.960;-0.698;2023-03-13T06:03:15;100736.91;;;10.86;100.00
46718;BME280;32448;44.960;-0.698;2023-03-13T06:05:49;100750.97;;;10.92;100.00
46718;BME280;32448;44.960;-0.698;2023-03-13T06:08:29;100748.22;;;10.85;100.00
46718;BME280;32448;44.960;-0.698;2023-03-13T06:10:59;100742.84;;;10.74;100.00
46718;BME280;32448;44.960;-0.698;2023-03-13T06:13:27;100756.84;;;10.78;100.00
46718;BME280;32448;44.960;-0.698;2023-03-13T06:16:00;100761.16;;;10.76;100.00
46718;BME280;32448;44.960;-0.698;2023-03-13T06:18:46;100753.25;;;10.73;100.00
46718;BME280;32448;44.960;-0.698;2023-03-13T06:21:14;100757.59;;;10.71;100.00
46718;BME280;32448;44.960;-0.698;2023-03-13T06:23:41;100750.50;;;10.64;100.00
46718;BME280;32448;44.960;-0.698;2023-03-13T06:26:09;100742.78;;;10.70;100.00
46718;BME280;32448;44.960;-0.698;2023-03-13T06:28:36;100741.75;;;10.62;100.00
46718;BME280;32448;44.960;-0.698;2023-03-13T06:31:05;100720.63;;;10.46;100.00
46718;BME280;32448;44.960;-0.698;2023-03-13T06:33:33;100728.47;;;10.49;100.00
46718;BME280;32448;44.960;-0.698;2023-03-13T06:36:01;100731.13;;;10.51;100.00
46718;BME280;32448;44.960;-0.698;2023-03-13T06:38:29;100701.31;;;10.38;100.00
46718;BME280;32448;44.960;-0.698;2023-03-13T06:40:57;100713.56;;;10.42;100.00
46718;BME280;32448;44.960;-0.698;2023-03-13T06:43:25;100724.09;;;10.47;100.00
46718;BME280;32448;44.960;-0.698;2023-03-13T06:45:53;100715.41;;;10.48;100.00
46718;BME280;32448;44.960;-0.698;2023-03-13T06:48:20;100715.41;;;10.49;100.00
46718;BME280;32448;44.960;-0.698;2023-03-13T06:50:49;100715.47;;;10.52;100.00
46718;BME280;32448;44.960;-0.698;2023-03-13T06:53:18;100708.47;;;10.48;100.00
46718;BME280;32448;44.960;-0.698;2023-03-13T06:55:46;100715.44;;;10.51;100.00
46718;BME280;32448;44.960;-0.698;2023-03-13T06:58:16;100703.22;;;10.48;100.00
46718;BME280;32448;44.960;-0.698;2023-03-13T07:00:59;100690.09;;;10.44;100.00
46718;BME280;32448;44.960;-0.698;2023-03-13T07:03:31;100706.75;;;10.52;100.00
46718;BME280;32448;44.960;-0.698;2023-03-13T07:05:59;100704.09;;;10.50;100.00
46718;BME280;32448;44.960;-0.698;2023-03-13T07:08:27;100698.97;;;10.55;100.00
46718;BME280;32448;44.960;-0.698;2023-03-13T07:10:58;100702.50;;;10.57;100.00
46718;BME280;32448;44.960;-0.698;2023-03-13T07:13:26;100707.81;;;10.63;100.00
46718;BME280;32448;44.960;-0.698;2023-03-13T07:15:55;100702.53;;;10.58;100.00
46718;BME280;32448;44.960;-0.698;2023-03-13T07:18:23;100703.59;;;10.73;100.00
46718;BME280;32448;44.960;-0.698;2023-03-13T07:20:55;100707.13;;;10.75;100.00
46718;BME280;32448;44.960;-0.698;2023-03-13T07:23:27;100700.09;;;10.72;100.00
46718;BME280;32448;44.960;-0.698;2023-03-13T07:25:56;100699.22;;;10.72;100.00
46718;BME280;32448;44.960;-0.698;2023-03-13T07:28:25;100701.00;;;10.74;100.00
46718;BME280;32448;44.960;-0.698;2023-03-13T07:30:53;100696.69;;;10.76;100.00
46718;BME280;32448;44.960;-0.698;2023-03-13T07:33:21;100700.28;;;10.84;100.00
46718;BME280;32448;44.960;-0.698;2023-03-13T07:35:49;100696.06;;;10.92;100.00
46718;BME280;32448;44.960;-0.698;2023-03-13T07:38:18;100685.56;;;10.91;100.00
46718;BME280;32448;44.960;-0.698;2023-03-13T07:40:53;100694.31;;;10.93;100.00
46718;BME280;32448;44.960;-0.698;2023-03-13T07:43:21;100697.00;;;10.98;100.00
46718;BME280;32448;44.960;-0.698;2023-03-13T07:45:55;100696.28;;;11.09;100.00
46718;BME280;32448;44.960;-0.698;2023-03-13T07:48:27;100682.28;;;11.06;100.00
46718;BME280;32448;44.960;-0.698;2023-03-13T07:50:55;100699.00;;;11.15;100.00
46718;BME280;32448;44.960;-0.698;2023-03-13T07:53:24;100690.47;;;11.31;100.00
46718;BME280;32448;44.960;-0.698;2023-03-13T07:55:59;100692.41;;;11.46;100.00
46718;BME280;32448;44.960;-0.698;2023-03-13T07:58:32;100686.31;;;11.49;100.00
46718;BME280;32448;44.960;-0.698;2023-03-13T08:01:07;100683.69;;;11.49;100.00
46718;BME280;32448;44.960;-0.698;2023-03-13T08:03:34;100677.81;;;11.66;100.00
46718;BME280;32448;44.960;-0.698;2023-03-13T08:06:08;100688.41;;;11.76;100.00
46718;BME280;32448;44.960;-0.698;2023-03-13T08:08:37;100689.38;;;11.85;100.00
46718;BME280;32448;44.960;-0.698;2023-03-13T08:11:07;100682.53;;;11.98;100.00
46718;BME280;32448;44.960;-0.698;2023-03-13T08:13:35;100677.47;;;12.19;100.00
46718;BME280;32448;44.960;-0.698;2023-03-13T08:16:11;100652.22;;;12.29;100.00
46718;BME280;32448;44.960;-0.698;2023-03-13T08:18:43;100661.13;;;12.48;100.00
46718;BME280;32448;44.960;-0.698;2023-03-13T08:21:14;100653.31;;;12.57;100.00
46718;BME280;32448;44.960;-0.698;2023-03-13T08:23:42;100656.97;;;12.79;100.00
46718;BME280;32448;44.960;-0.698;2023-03-13T08:26:15;100665.75;;;12.88;100.00
46718;BME280;32448;44.960;-0.698;2023-03-13T08:28:43;100657.03;;;12.94;100.00
46718;BME280;32448;44.960;-0.698;2023-03-13T08:31:17;100627.41;;;13.13;100.00
46718;BME280;32448;44.960;-0.698;2023-03-13T08:33:46;100629.28;;;13.35;100.00
46718;BME280;32448;44.960;-0.698;2023-03-13T08:36:25;100622.31;;;13.51;100.00
46718;BME280;32448;44.960;-0.698;2023-03-13T08:38:54;100617.09;;;13.57;100.00
46718;BME280;32448;44.960;-0.698;2023-03-13T08:41:24;100625.84;;;13.70;100.00
46718;BME280;32448;44.960;-0.698;2023-03-13T08:43:53;100624.97;;;13.71;100.00
46718;BME280;32448;44.960;-0.698;2023-03-13T08:46:21;100604.81;;;13.62;100.00
46718;BME280;32448;44.960;-0.698;2023-03-13T08:48:52;100605.72;;;13.69;100.00
46718;BME280;32448;44.960;-0.698;2023-03-13T08:51:23;100617.97;;;13.82;100.00
46718;BME280;32448;44.960;-0.698;2023-03-13T08:53:51;100619.75;;;13.94;100.00
46718;BME280;32448;44.960;-0.698;2023-03-13T08:56:20;100621.50;;;13.99;100.00
46718;BME280;32448;44.960;-0.698;2023-03-13T08:58:49;100623.28;;;14.09;100.00
46718;BME280;32448;44.960;-0.698;2023-03-13T09:01:17;100627.63;;;14.18;100.00
46718;BME280;32448;44.960;-0.698;2023-03-13T09:03:44;100624.16;;;14.24;100.00
46718;BME280;32448;44.960;-0.698;2023-03-13T09:06:12;100615.38;;;14.31;100.00
46718;BME280;32448;44.960;-0.698;2023-03-13T09:08:40;100622.38;;;14.50;100.00
46718;BME280;32448;44.960;-0.698;2023-03-13T09:11:19;100613.63;;;14.57;100.00
46718;BME280;32448;44.960;-0.698;2023-03-13T09:13:49;100608.31;;;14.72;100.00
46718;BME280;32448;44.960;-0.698;2023-03-13T09:16:19;100605.66;;;14.81;100.00
46718;BME280;32448;44.960;-0.698;2023-03-13T09:18:47;100588.94;;;15.02;100.00
46718;BME280;32448;44.960;-0.698;2023-03-13T09:21:23;100595.91;;;15.11;100.00
46718;BME280;32448;44.960;-0.698;2023-03-13T09:23:51;100570.38;;;15.26;100.00
46718;BME280;32448;44.960;-0.698;2023-03-13T09:26:20;100572.94;;;15.37;100.00
46718;BME280;32448;44.960;-0.698;2023-03-13T09:28:50;100572.81;;;15.61;100.00
46718;BME280;32448;44.960;-0.698;2023-03-13T09:31:24;100561.41;;;15.64;100.00
46718;BME280;32448;44.960;-0.698;2023-03-13T09:33:52;100554.19;;;15.86;100.00
46718;BME280;32448;44.960;-0.698;2023-03-13T09:36:20;100562.81;;;16.05;100.00
46718;BME280;32448;44.960;-0.698;2023-03-13T09:38:56;100553.06;;;16.14;100.00
46718;BME280;32448;44.960;-0.698;2023-03-13T09:41:39;100541.56;;;16.23;100.00
46718;BME280;32448;44.960;-0.698;2023-03-13T09:44:19;100550.16;;;16.42;100.00
46718;BME280;32448;44.960;-0.698;2023-03-13T09:52:15;100526.94;;;16.76;100.00
46718;BME280;32448;44.960;-0.698;2023-03-13T09:54:51;100528.69;;;16.78;100.00
46718;BME280;32448;44.960;-0.698;2023-03-13T09:57:48;100515.28;;;16.90;100.00
46718;BME280;32448;44.960;-0.698;2023-03-13T10:00:33;100522.88;;;17.18;100.00
46718;BME280;32448;44.960;-0.698;2023-03-13T10:05:29;100510.31;;;17.33;100.00
46718;BME280;32448;44.960;-0.698;2023-03-13T10:08:14;100524.28;;;17.40;100.00
46718;BME280;32448;44.960;-0.698;2023-03-13T10:10:47;100512.00;;;17.37;100.00
46718;BME280;32448;44.960;-0.698;2023-03-13T10:13:30;100492.53;;;17.44;100.00
46718;BME280;32448;44.960;-0.698;2023-03-13T10:16:32;100506.19;;;17.72;100.00
46718;BME280;32448;44.960;-0.698;2023-03-13T10:18:58;100490.88;;;17.91;100.00
46718;BME280;32448;44.960;-0.698;2023-03-13T10:21:32;100494.31;;;17.98;100.00
46718;BME280;32448;44.960;-0.698;2023-03-13T10:24:35;100494.63;;;18.27;100.00
46718;BME280;32448;44.960;-0.698;2023-03-13T10:27:07;100462.00;;;18.27;100.00
46718;BME280;32448;44.960;-0.698;2023-03-13T10:29:35;100487.25;;;18.44;100.00
46718;BME280;32448;44.960;-0.698;2023-03-13T10:32:04;100485.16;;;18.62;100.00
46718;BME280;32448;44.960;-0.698;2023-03-13T10:34:57;100487.88;;;18.59;100.00
46718;BME280;32448;44.960;-0.698;2023-03-13T10:37:28;100475.28;;;18.70;100.00
46718;BME280;32448;44.960;-0.698;2023-03-13T10:40:21;100478.84;;;18.69;100.00
46718;BME280;32448;44.960;-0.698;2023-03-13T10:42:53;100457.78;;;18.63;100.00
46718;BME280;32448;44.960;-0.698;2023-03-13T10:45:26;100451.75;;;18.54;100.00
46718;BME280;32448;44.960;-0.698;2023-03-13T10:48:01;100464.78;;;18.67;100.00
46718;BME280;32448;44.960;-0.698;2023-03-13T10:50:32;100466.59;;;18.65;100.00
46718;BME280;32448;44.960;-0.698;2023-03-13T10:53:19;100467.50;;;18.62;100.00
46718;BME280;32448;44.960;-0.698;2023-03-13T10:55:46;100459.81;;;18.48;100.00
46718;BME280;32448;44.960;-0.698;2023-03-13T10:58:21;100467.03;;;18.42;100.00
46718;BME280;32448;44.960;-0.698;2023-03-13T11:00:49;100461.84;;;18.34;100.00
46718;BME280;32448;44.960;-0.698;2023-03-13T11:03:25;100455.69;;;18.34;100.00
46718;BME280;32448;44.960;-0.698;2023-03-13T11:06:02;100454.88;;;18.32;100.00
46718;BME280;32448;44.960;-0.698;2023-03-13T11:08:40;100455.63;;;18.38;100.00
46718;BME280;32448;44.960;-0.698;2023-03-13T11:11:17;100422.25;;;18.31;100.00
46718;BME280;32448;44.960;-0.698;2023-03-13T11:13:45;100434.41;;;18.40;100.00
46718;BME280;32448;44.960;-0.698;2023-03-13T11:21:32;100414.09;;;18.42;100.00
46718;BME280;32448;44.960;-0.698;2023-03-13T11:24:07;100411.72;;;18.28;100.00
46718;BME280;32448;44.960;-0.698;2023-03-13T11:26:42;100351.34;;;18.05;100.00
46718;BME280;32448;44.960;-0.698;2023-03-13T11:29:30;100397.63;;;18.28;100.00
46718;BME280;32448;44.960;-0.698;2023-03-13T11:32:10;100395.00;;;18.26;100.00
46718;BME280;32448;44.960;-0.698;2023-03-13T11:34:43;100377.81;;;18.45;100.00
46718;BME280;32448;44.960;-0.698;2023-03-13T11:37:17;100381.00;;;18.64;100.00
46718;BME280;32448;44.960;-0.698;2023-03-13T11:57:15;100383.38;;;19.49;100.00
46718;BME280;32448;44.960;-0.698;2023-03-13T12:02:34;100355.72;;;19.59;100.00
46718;BME280;32448;44.960;-0.698;2023-03-13T12:05:10;100368.97;;;19.59;100.00
46718;BME280;32448;44.960;-0.698;2023-03-13T12:07:42;100336.94;;;19.67;100.00
46718;BME280;32448;44.960;-0.698;2023-03-13T12:10:26;100338.25;;;19.84;100.00
46718;BME280;32448;44.960;-0.698;2023-03-13T12:12:58;100345.81;;;19.98;100.00
46718;BME280;32448;44.960;-0.698;2023-03-13T12:15:42;100321.31;;;19.88;100.00
46718;BME280;32448;44.960;-0.698;2023-03-13T12:18:39;100323.44;;;20.07;100.00
46718;BME280;32448;44.960;-0.698;2023-03-13T12:21:31;100331.97;;;20.18;100.00
46718;BME280;32448;44.960;-0.698;2023-03-13T12:24:27;100334.47;;;20.22;100.00
46718;BME280;32448;44.960;-0.698;2023-03-13T12:27:13;100349.38;;;19.97;100.00
46718;BME280;32448;44.960;-0.698;2023-03-13T12:32:25;100364.41;;;19.66;100.00
46718;BME280;32448;44.960;-0.698;2023-03-13T12:37:44;100321.44;;;19.53;100.00
46718;BME280;32448;44.960;-0.698;2023-03-13T12:45:59;100346.16;;;19.86;100.00
46718;BME280;32448;44.960;-0.698;2023-03-13T12:59:35;100336.44;;;19.54;100.00
46718;BME280;32448;44.960;-0.698;2023-03-13T13:02:19;100306.47;;;19.50;100.00
46718;BME280;32448;44.960;-0.698;2023-03-13T13:04:49;100323.22;;;19.52;100.00
46718;BME280;32448;44.960;-0.698;2023-03-13T13:07:37;100309.44;;;19.37;100.00
46718;BME280;32448;44.960;-0.698;2023-03-13T13:12:38;100312.06;;;19.72;100.00
46718;BME280;32448;44.960;-0.698;2023-03-13T13:18:09;100319.97;;;19.74;100.00
46718;BME280;32448;44.960;-0.698;2023-03-13T13:20:42;100312.50;;;19.88;100.00
46718;BME280;32448;44.960;-0.698;2023-03-13T13:23:24;100293.44;;;19.74;100.00
46718;BME280;32448;44.960;-0.698;2023-03-13T13:25:54;100322.38;;;19.50;100.00
46718;BME280;32448;44.960;-0.698;2023-03-13T13:28:24;100322.69;;;19.37;100.00
46718;BME280;32448;44.960;-0.698;2023-03-13T13:30:54;100323.44;;;19.43;100.00
46718;BME280;32448;44.960;-0.698;2023-03-13T13:36:27;100306.94;;;19.66;100.00
46718;BME280;32448;44.960;-0.698;2023-03-13T13:38:55;100312.06;;;19.72;100.00
46718;BME280;32448;44.960;-0.698;2023-03-13T13:41:26;100307.41;;;19.80;100.00
46718;BME280;32448;44.960;-0.698;2023-03-13T13:44:22;100319.25;;;19.67;100.00
46718;BME280;32448;44.960;-0.698;2023-03-13T13:46:50;100317.44;;;19.69;100.00
46718;BME280;32448;44.960;-0.698;2023-03-13T13:49:20;100321.44;;;19.53;100.00
46718;BME280;32448;44.960;-0.698;2023-03-13T13:57:14;100316.94;;;19.21;100.00
46718;BME280;32448;44.960;-0.698;2023-03-13T13:59:43;100302.22;;;19.09;100.00
46718;BME280;32448;44.960;-0.698;2023-03-13T14:02:37;100283.50;;;19.15;100.00
46718;BME280;32448;44.960;-0.698;2023-03-13T14:05:22;100280.66;;;19.23;100.00
46718;BME280;32448;44.960;-0.698;2023-03-13T14:08:05;100318.28;;;19.37;100.00
46718;BME280;32448;44.960;-0.698;2023-03-13T14:10:38;100314.22;;;19.22;100.00
46718;BME280;32448;44.960;-0.698;2023-03-13T14:13:18;100311.50;;;19.25;100.00
46718;BME280;32448;44.960;-0.698;2023-03-13T14:15:50;100312.28;;;19.31;100.00